Time;durP1;ratioP1;P1;durP2;ratioP2;P2;SDS_P1;SDS_P2;PMS_P1;PMS_P2;Temp;Humidity;BMP_temperature;BMP_pressure;BME280_temperature;BME280_humidity;BME280_pressure;Samples;Min_cycle;Max_cycle;Signal;HPM_P1;HPM_P2
2022/11/30 00:01:21;;;;;;;19.73;17.67;;;8.70;99.90;;;;;;5026672;28;20669;-81
2022/11/30 00:03:47;;;;;;;19.07;15.97;;;8.70;99.90;;;;;;5027210;28;20272;-80
2022/11/30 00:06:15;;;;;;;19.77;17.77;;;8.70;99.90;;;;;;5011295;28;20206;-81
2022/11/30 00:08:41;;;;;;;19.83;17.70;;;8.60;99.90;;;;;;5027591;28;20191;-81
2022/11/30 00:11:13;;;;;;;19.03;16.60;;;8.60;99.90;;;;;;5024481;28;20193;-80
2022/11/30 00:13:38;;;;;;;17.73;15.87;;;8.50;99.90;;;;;;5027611;28;20200;-80
2022/11/30 00:16:05;;;;;;;20.80;16.63;;;8.50;99.90;;;;;;5027511;28;20272;-81
2022/11/30 00:18:31;;;;;;;17.33;15.37;;;8.50;99.90;;;;;;5028197;28;20205;-81
2022/11/30 00:21:03;;;;;;;20.43;18.33;;;8.60;99.90;;;;;;5025940;28;20602;-78
2022/11/30 00:23:36;;;;;;;18.97;16.87;;;8.70;99.90;;;;;;5026167;28;20216;-80
2022/11/30 00:26:05;;;;;;;18.43;16.53;;;8.60;99.90;;;;;;5027909;28;20190;-80
2022/11/30 00:28:32;;;;;;;18.70;16.80;;;8.60;99.90;;;;;;5010178;28;20186;-80
2022/11/30 00:31:07;;;;;;;18.20;16.30;;;8.60;99.90;;;;;;5026900;28;20188;-81
2022/11/30 00:33:34;;;;;;;19.73;17.77;;;8.70;99.90;;;;;;5026667;28;20247;-82
2022/11/30 00:36:06;;;;;;;18.67;16.77;;;8.80;99.90;;;;;;5027810;28;20220;-81
2022/11/30 00:38:33;;;;;;;18.37;16.50;;;8.80;99.90;;;;;;5027664;28;20193;-83
2022/11/30 00:40:59;;;;;;;19.67;16.70;;;8.70;99.90;;;;;;5026940;28;20191;-81
2022/11/30 00:43:25;;;;;;;19.13;16.97;;;8.70;99.90;;;;;;5027428;28;20214;-81
2022/11/30 00:45:51;;;;;;;18.50;16.63;;;8.70;99.90;;;;;;5027261;28;20221;-82
2022/11/30 00:48:16;;;;;;;18.00;16.20;;;8.70;99.90;;;;;;5026845;28;20265;-82
2022/11/30 00:50:42;;;;;;;17.80;15.90;;;8.70;99.90;;;;;;5019821;28;20187;-81
2022/11/30 00:53:08;;;;;;;19.70;16.90;;;8.70;99.90;;;;;;5026306;28;20217;-80
2022/11/30 00:55:34;;;;;;;20.93;18.70;;;8.60;99.90;;;;;;5026325;28;20198;-80
2022/11/30 00:58:00;;;;;;;21.73;19.33;;;8.60;99.90;;;;;;5026855;28;20186;-81
2022/11/30 01:00:26;;;;;;;21.27;19.07;;;8.70;99.90;;;;;;5026307;28;20208;-81
2022/11/30 01:02:56;;;;;;;19.93;17.93;;;8.70;99.90;;;;;;5026050;28;20221;-81
2022/11/30 01:05:22;;;;;;;21.17;18.87;;;8.60;99.90;;;;;;5025870;28;20192;-81
2022/11/30 01:07:47;;;;;;;24.00;17.50;;;8.60;99.90;;;;;;5008989;28;20190;-80
2022/11/30 01:10:13;;;;;;;21.90;19.47;;;8.60;99.90;;;;;;5025672;28;20188;-81
2022/11/30 01:12:42;;;;;;;20.63;18.47;;;8.60;99.90;;;;;;5025794;28;20293;-80
2022/11/30 01:15:09;;;;;;;21.07;18.47;;;8.60;99.90;;;;;;5022701;28;20246;-81
2022/11/30 01:17:34;;;;;;;20.07;18.07;;;8.60;99.90;;;;;;5007639;28;20213;-82
2022/11/30 01:20:00;;;;;;;21.57;17.93;;;8.60;99.90;;;;;;5008071;28;20178;-81
2022/11/30 01:22:26;;;;;;;22.43;17.50;;;8.60;99.90;;;;;;5025306;28;20686;-81
2022/11/30 01:24:51;;;;;;;21.70;17.60;;;8.60;99.90;;;;;;5025963;28;20209;-81
2022/11/30 01:27:17;;;;;;;20.80;18.40;;;8.60;99.90;;;;;;5024130;28;20175;-80
2022/11/30 01:29:43;;;;;;;26.97;20.47;;;8.60;99.90;;;;;;5025351;28;20189;-81
2022/11/30 01:32:09;;;;;;;28.77;20.20;;;8.60;99.90;;;;;;5024925;28;20197;-82
2022/11/30 01:34:34;;;;;;;28.70;20.87;;;8.60;99.90;;;;;;5024498;28;20241;-80
2022/11/30 01:37:00;;;;;;;26.73;19.97;;;8.60;99.90;;;;;;5025447;28;20185;-80
2022/11/30 01:39:26;;;;;;;24.63;19.53;;;8.50;99.90;;;;;;5024908;28;20257;-79
2022/11/30 01:41:53;;;;;;;26.30;19.60;;;8.40;99.90;;;;;;5024255;28;20209;-80
2022/11/30 01:44:25;;;;;;;27.90;19.30;;;8.30;99.90;;;;;;5025282;28;20213;-81
2022/11/30 01:46:59;;;;;;;24.17;19.17;;;8.30;99.90;;;;;;5013742;28;20277;-80
2022/11/30 01:49:29;;;;;;;25.53;20.37;;;8.40;99.90;;;;;;5004281;28;20186;-79
2022/11/30 01:52:13;;;;;;;28.30;19.13;;;8.40;99.90;;;;;;5025553;28;20278;-81
2022/11/30 01:54:50;;;;;;;25.20;18.23;;;8.40;99.90;;;;;;5025752;28;20177;-82
2022/11/30 01:57:30;;;;;;;27.57;20.33;;;8.40;99.90;;;;;;5024679;28;20209;-81
2022/11/30 02:00:00;;;;;;;27.27;19.33;;;8.50;99.90;;;;;;5024416;28;20209;-80
2022/11/30 02:02:49;;;;;;;28.77;18.53;;;8.40;99.90;;;;;;5024561;28;20835;-81
2022/11/30 02:05:16;;;;;;;28.23;20.90;;;8.40;99.90;;;;;;5008742;28;20655;-81
2022/11/30 02:07:44;;;;;;;26.40;18.53;;;8.50;99.90;;;;;;5024478;28;20178;-80
2022/11/30 02:10:14;;;;;;;26.03;19.43;;;8.40;99.90;;;;;;5022613;28;20193;-80
2022/11/30 02:12:59;;;;;;;23.37;18.50;;;8.40;99.90;;;;;;5024977;28;20272;-81
2022/11/30 02:15:30;;;;;;;30.47;19.90;;;8.40;99.90;;;;;;5023533;28;20189;-81
2022/11/30 02:18:13;;;;;;;26.97;19.90;;;8.40;99.90;;;;;;5023895;28;20190;-81
2022/11/30 02:21:11;;;;;;;24.83;19.00;;;8.40;99.90;;;;;;5016514;28;20221;-80
2022/11/30 02:23:40;;;;;;;28.23;19.73;;;8.40;99.90;;;;;;5021370;28;20286;-79
2022/11/30 02:26:12;;;;;;;27.27;19.03;;;8.40;99.90;;;;;;5006511;28;20181;-79
2022/11/30 02:28:56;;;;;;;29.63;20.80;;;8.40;99.90;;;;;;5006506;28;20181;-80
2022/11/30 02:31:33;;;;;;;28.40;18.80;;;8.40;99.90;;;;;;5019090;28;20206;-80
2022/11/30 02:34:01;;;;;;;26.20;19.33;;;8.40;99.90;;;;;;5025795;28;20212;-81
2022/11/30 02:36:28;;;;;;;27.27;20.03;;;8.40;99.90;;;;;;5028526;28;20205;-81
2022/11/30 02:38:55;;;;;;;27.27;19.90;;;8.40;99.90;;;;;;5028460;28;20190;-81
2022/11/30 02:41:21;;;;;;;26.97;21.00;;;8.40;99.90;;;;;;5028334;28;20220;-80
2022/11/30 02:43:47;;;;;;;25.13;19.77;;;8.40;99.90;;;;;;5010043;28;20696;-80
2022/11/30 02:46:18;;;;;;;29.00;20.37;;;8.40;99.90;;;;;;5022738;28;20186;-80
2022/11/30 02:49:04;;;;;;;22.37;18.20;;;8.40;99.90;;;;;;5028299;28;20256;-80
2022/11/30 02:51:34;;;;;;;24.83;19.87;;;8.40;99.90;;;;;;5023360;28;20224;-81
2022/11/30 02:54:00;;;;;;;28.60;20.03;;;8.40;99.90;;;;;;5027704;28;20217;-80
2022/11/30 02:56:27;;;;;;;28.90;20.33;;;8.40;99.90;;;;;;5030200;28;20194;-81
2022/11/30 02:58:52;;;;;;;28.70;20.90;;;8.30;99.90;;;;;;5028618;28;20186;-80
2022/11/30 03:01:18;;;;;;;29.33;21.00;;;8.30;99.90;;;;;;5027821;28;20308;-82
2022/11/30 03:03:44;;;;;;;28.87;19.50;;;8.30;99.90;;;;;;5010367;28;20378;-81
2022/11/30 03:06:10;;;;;;;28.17;20.43;;;8.30;99.90;;;;;;5011121;28;20197;-79
2022/11/30 03:08:36;;;;;;;27.73;20.53;;;8.30;99.90;;;;;;5028779;28;20212;-81
2022/11/30 03:11:03;;;;;;;27.67;21.23;;;8.30;99.90;;;;;;5027113;28;20177;-81
2022/11/30 03:13:30;;;;;;;29.93;21.53;;;8.30;99.90;;;;;;5028104;28;20264;-80
2022/11/30 03:15:56;;;;;;;28.10;20.40;;;8.30;99.90;;;;;;5010393;28;20613;-81
2022/11/30 03:18:22;;;;;;;24.20;18.60;;;8.30;99.90;;;;;;5004687;28;20696;-81
2022/11/30 03:20:47;;;;;;;26.20;20.00;;;8.30;99.90;;;;;;5028017;28;20192;-81
2022/11/30 03:23:13;;;;;;;28.97;20.77;;;8.30;99.90;;;;;;5009306;28;20224;-82
2022/11/30 03:25:39;;;;;;;30.53;22.70;;;8.30;99.90;;;;;;5012442;28;20262;-80
2022/11/30 03:28:04;;;;;;;32.63;20.87;;;8.30;99.90;;;;;;5027786;28;20998;-81
2022/11/30 03:30:30;;;;;;;27.53;20.07;;;8.30;99.90;;;;;;5028173;28;20194;-81
2022/11/30 03:32:56;;;;;;;30.63;21.87;;;8.40;99.90;;;;;;5026944;28;20221;-81
2022/11/30 03:35:22;;;;;;;26.83;19.90;;;8.40;99.90;;;;;;5028062;28;20186;-81
2022/11/30 03:37:47;;;;;;;27.53;21.67;;;8.40;99.90;;;;;;5027592;28;20237;-81
2022/11/30 03:40:13;;;;;;;27.27;21.77;;;8.40;99.90;;;;;;5028171;28;20189;-81
2022/11/30 03:42:39;;;;;;;29.63;21.43;;;8.30;99.90;;;;;;5027592;28;20216;-80
2022/11/30 03:45:05;;;;;;;26.63;19.90;;;8.30;99.90;;;;;;5026884;28;20190;-80
2022/11/30 03:47:31;;;;;;;28.87;22.07;;;8.20;99.90;;;;;;5026913;28;20256;-79
2022/11/30 03:49:57;;;;;;;24.40;20.37;;;8.20;99.90;;;;;;5026517;28;20190;-80
2022/11/30 03:52:22;;;;;;;34.70;21.90;;;8.20;99.90;;;;;;5027096;28;20202;-80
2022/11/30 03:54:48;;;;;;;31.93;21.00;;;8.20;99.90;;;;;;5027873;28;20723;-81
2022/11/30 03:57:14;;;;;;;29.47;20.87;;;8.10;99.90;;;;;;5027386;28;20213;-81
2022/11/30 03:59:39;;;;;;;30.70;21.77;;;8.10;99.90;;;;;;5009919;28;20189;-81
2022/11/30 04:02:05;;;;;;;31.57;22.10;;;8.10;99.90;;;;;;5027177;28;20221;-81
2022/11/30 04:04:31;;;;;;;28.80;19.93;;;8.10;99.90;;;;;;5027368;28;20216;-81
2022/11/30 04:06:57;;;;;;;26.23;18.87;;;8.10;99.90;;;;;;5027396;28;20197;-81
2022/11/30 04:09:22;;;;;;;26.47;20.63;;;8.10;99.90;;;;;;5027693;28;20686;-81
2022/11/30 04:11:48;;;;;;;27.57;19.53;;;8.20;99.90;;;;;;5027858;28;20642;-81
2022/11/30 04:14:14;;;;;;;28.50;21.37;;;8.20;99.90;;;;;;5025946;28;20193;-81
2022/11/30 04:16:40;;;;;;;29.53;21.23;;;8.20;99.90;;;;;;5026761;28;20209;-81
2022/11/30 04:19:05;;;;;;;30.93;20.23;;;8.20;99.90;;;;;;5026874;28;20197;-79
2022/11/30 04:21:31;;;;;;;27.87;20.20;;;8.20;99.90;;;;;;5026897;28;20210;-81
2022/11/30 04:23:57;;;;;;;30.00;20.60;;;8.20;99.90;;;;;;5026419;28;20220;-81
2022/11/30 04:26:22;;;;;;;28.00;20.53;;;8.10;99.90;;;;;;5027268;28;20191;-80
2022/11/30 04:28:48;;;;;;;24.40;19.80;;;8.10;99.90;;;;;;5026439;28;20186;-81
2022/11/30 04:31:14;;;;;;;28.83;19.77;;;8.10;99.90;;;;;;5026825;28;20181;-81
2022/11/30 04:33:40;;;;;;;29.37;20.50;;;8.10;99.90;;;;;;5027945;28;20197;-80
2022/11/30 04:36:15;;;;;;;25.03;18.50;;;8.10;99.90;;;;;;5031918;28;20197;-80
2022/11/30 04:38:40;;;;;;;27.93;19.87;;;8.10;99.90;;;;;;5017140;28;20226;-81
2022/11/30 04:41:07;;;;;;;26.73;18.90;;;8.10;99.90;;;;;;5027311;28;20194;-80
2022/11/30 04:43:33;;;;;;;26.10;19.23;;;8.10;99.90;;;;;;5025834;28;20209;-81
2022/11/30 04:45:59;;;;;;;26.23;18.60;;;8.00;99.90;;;;;;5024930;28;20197;-80
2022/11/30 04:48:25;;;;;;;25.50;18.93;;;8.00;99.90;;;;;;5026260;28;20185;-80
2022/11/30 04:50:51;;;;;;;28.77;19.80;;;8.00;99.90;;;;;;5025846;28;20189;-80
2022/11/30 04:53:16;;;;;;;22.73;18.67;;;8.00;99.90;;;;;;5009003;28;20213;-80
2022/11/30 04:55:42;;;;;;;24.30;18.23;;;8.00;99.90;;;;;;5025768;28;20201;-81
2022/11/30 04:58:08;;;;;;;24.47;18.80;;;8.10;99.90;;;;;;5024474;28;20190;-81
2022/11/30 05:00:34;;;;;;;24.80;17.57;;;8.10;99.90;;;;;;5025323;28;20194;-79
2022/11/30 05:03:00;;;;;;;21.20;17.87;;;8.10;99.90;;;;;;5025625;28;20218;-79
2022/11/30 05:05:26;;;;;;;29.17;21.37;;;8.10;99.90;;;;;;5025785;28;20224;-80
2022/11/30 05:07:58;;;;;;;27.97;25.07;;;8.00;99.90;;;;;;5025541;28;20190;-80
2022/11/30 05:10:24;;;;;;;26.77;21.93;;;8.10;99.90;;;;;;5025547;28;20701;-80
2022/11/30 05:12:50;;;;;;;28.40;22.40;;;8.10;99.90;;;;;;5026886;28;20815;-81
2022/11/30 05:15:16;;;;;;;26.13;21.53;;;8.10;99.90;;;;;;5025822;28;20277;-81
2022/11/30 05:17:42;;;;;;;25.80;19.60;;;8.10;99.90;;;;;;5026914;28;20177;-81
2022/11/30 05:20:08;;;;;;;25.27;19.87;;;8.10;99.90;;;;;;5025949;28;20189;-81
2022/11/30 05:22:34;;;;;;;22.10;18.83;;;8.10;99.90;;;;;;5025665;28;20220;-80
2022/11/30 05:24:59;;;;;;;25.30;18.30;;;8.20;99.90;;;;;;5025010;28;20254;-80
2022/11/30 05:27:25;;;;;;;27.47;20.80;;;8.20;99.90;;;;;;5026075;28;20185;-82
2022/11/30 05:29:51;;;;;;;21.00;18.17;;;8.20;99.90;;;;;;5025687;28;20178;-80
2022/11/30 05:32:17;;;;;;;25.73;19.30;;;8.20;99.90;;;;;;5025216;28;20210;-80
2022/11/30 05:34:42;;;;;;;24.33;17.50;;;8.20;99.90;;;;;;5024616;28;20287;-80
2022/11/30 05:37:08;;;;;;;24.67;19.43;;;8.20;99.90;;;;;;5025601;28;20288;-82
2022/11/30 05:39:34;;;;;;;25.70;19.10;;;8.20;99.90;;;;;;5024953;28;20248;-80
2022/11/30 05:42:00;;;;;;;25.73;18.37;;;8.20;99.90;;;;;;5026007;28;20217;-81
2022/11/30 05:44:25;;;;;;;21.50;17.23;;;8.20;99.90;;;;;;5023809;28;20225;-80
2022/11/30 05:46:51;;;;;;;24.93;17.43;;;8.20;99.90;;;;;;5024531;28;20178;-79
2022/11/30 05:49:17;;;;;;;24.47;17.80;;;8.20;99.90;;;;;;5023833;28;20185;-79
2022/11/30 05:51:43;;;;;;;25.53;19.30;;;8.30;99.90;;;;;;5023428;28;20201;-80
2022/11/30 05:54:08;;;;;;;24.73;18.70;;;8.30;99.90;;;;;;5023944;28;20194;-80
2022/11/30 05:56:35;;;;;;;20.83;18.10;;;8.20;99.90;;;;;;5024959;28;20200;-81
2022/11/30 05:59:00;;;;;;;24.53;18.63;;;8.30;99.90;;;;;;5024685;28;20679;-81
2022/11/30 06:01:28;;;;;;;29.50;25.83;;;8.30;99.90;;;;;;5023193;28;20201;-80
2022/11/30 06:03:54;;;;;;;21.90;19.40;;;8.20;99.90;;;;;;5024440;28;20205;-80
2022/11/30 06:06:20;;;;;;;22.03;19.43;;;8.30;99.90;;;;;;5007634;28;20193;-81
2022/11/30 06:08:47;;;;;;;23.10;19.37;;;8.20;99.90;;;;;;5024655;28;20217;-80
2022/11/30 06:11:14;;;;;;;21.90;18.47;;;8.30;99.90;;;;;;5024925;28;20235;-81
2022/11/30 06:13:40;;;;;;;23.03;17.70;;;8.30;99.90;;;;;;5024241;28;20256;-79
2022/11/30 06:16:07;;;;;;;21.27;16.80;;;8.30;99.90;;;;;;5026040;28;20194;-80
2022/11/30 06:18:36;;;;;;;21.83;18.83;;;8.30;99.90;;;;;;5030657;28;20186;-80
2022/11/30 06:21:07;;;;;;;28.00;24.57;;;8.30;99.90;;;;;;5026225;28;20193;-81
2022/11/30 06:23:33;;;;;;;26.37;23.63;;;8.30;99.90;;;;;;5025394;28;20308;-81
2022/11/30 06:26:03;;;;;;;23.33;19.67;;;8.30;99.90;;;;;;5024349;28;20647;-80
2022/11/30 06:28:29;;;;;;;18.70;16.53;;;8.30;99.90;;;;;;5025559;28;20193;-80
2022/11/30 06:31:02;;;;;;;21.93;17.07;;;8.40;99.90;;;;;;5024539;28;20248;-80
2022/11/30 06:33:29;;;;;;;17.13;15.30;;;8.30;99.90;;;;;;5025364;28;20180;-82
2022/11/30 06:35:56;;;;;;;18.70;16.70;;;8.30;99.90;;;;;;5024674;28;20193;-81
2022/11/30 06:38:24;;;;;;;17.10;15.40;;;8.30;99.90;;;;;;5025285;28;20185;-81
2022/11/30 06:40:51;;;;;;;18.43;16.37;;;8.20;99.90;;;;;;5025365;28;20257;-80
2022/11/30 06:43:17;;;;;;;19.83;17.13;;;8.20;99.90;;;;;;5024467;28;20203;-81
2022/11/30 06:45:44;;;;;;;19.23;16.67;;;8.20;99.90;;;;;;5007493;28;20232;-80
2022/11/30 06:48:10;;;;;;;19.10;17.20;;;8.10;99.90;;;;;;5023853;28;20849;-80
2022/11/30 06:50:37;;;;;;;20.30;17.80;;;8.10;99.90;;;;;;5024580;28;20228;-81
2022/11/30 06:53:03;;;;;;;18.40;16.63;;;8.10;99.90;;;;;;5024046;28;20209;-81
2022/11/30 06:55:31;;;;;;;17.03;15.37;;;8.10;99.90;;;;;;5025945;28;20189;-80
2022/11/30 06:58:07;;;;;;;17.03;15.43;;;8.10;99.90;;;;;;5025218;28;20209;-81
2022/11/30 07:00:35;;;;;;;25.23;22.83;;;8.10;99.90;;;;;;5028328;28;20177;-83
2022/11/30 07:03:04;;;;;;;24.40;22.17;;;8.10;99.90;;;;;;5025987;28;20217;-82
2022/11/30 07:05:38;;;;;;;17.10;15.50;;;8.10;99.90;;;;;;5006312;28;20180;-80
2022/11/30 07:08:04;;;;;;;16.23;14.53;;;8.10;99.90;;;;;;5022311;28;20231;-81
2022/11/30 07:10:30;;;;;;;18.80;16.90;;;8.00;99.90;;;;;;5020374;28;20186;-81
2022/11/30 07:12:55;;;;;;;21.73;19.53;;;8.00;99.90;;;;;;5021080;28;20304;-81
2022/11/30 07:15:21;;;;;;;15.27;13.80;;;8.00;99.90;;;;;;5019249;28;20193;-82
2022/11/30 07:17:47;;;;;;;15.47;13.97;;;8.00;99.90;;;;;;4996112;28;20189;-81
2022/11/30 07:20:12;;;;;;;19.70;17.73;;;8.10;99.90;;;;;;4994648;28;20197;-80
2022/11/30 07:22:38;;;;;;;17.10;15.23;;;8.00;99.90;;;;;;5023001;28;20217;-81
2022/11/30 07:27:48;;;;;;;16.00;14.60;;;7.90;99.90;;;;;;5027991;28;20191;-81
2022/11/30 07:30:14;;;;;;;15.67;14.27;;;7.90;99.90;;;;;;5027398;28;20249;-80
2022/11/30 07:32:40;;;;;;;14.43;13.17;;;7.90;99.90;;;;;;5026950;28;20213;-80
2022/11/30 07:35:06;;;;;;;13.83;12.53;;;7.90;99.90;;;;;;5026508;28;20189;-82
2022/11/30 07:37:31;;;;;;;14.43;13.13;;;7.90;99.90;;;;;;5027597;28;20264;-81
2022/11/30 07:39:57;;;;;;;13.53;12.30;;;7.90;99.90;;;;;;5024190;28;20217;-81
2022/11/30 07:42:23;;;;;;;14.10;12.70;;;7.80;99.90;;;;;;5026346;28;20209;-81
2022/11/30 07:44:48;;;;;;;14.43;13.10;;;7.90;99.90;;;;;;5028678;28;20221;-82
2022/11/30 07:47:15;;;;;;;15.10;13.80;;;7.90;99.90;;;;;;5027882;28;20192;-80
2022/11/30 07:49:40;;;;;;;14.67;13.10;;;7.90;99.90;;;;;;5027989;28;20306;-80
2022/11/30 07:52:07;;;;;;;13.77;12.40;;;7.90;99.90;;;;;;5027640;28;20209;-81
2022/11/30 07:54:33;;;;;;;15.00;13.60;;;7.90;99.90;;;;;;5010415;28;20189;-80
2022/11/30 07:56:59;;;;;;;14.00;12.57;;;7.90;99.90;;;;;;5027321;28;20188;-81
2022/11/30 07:59:25;;;;;;;13.80;12.50;;;7.80;99.90;;;;;;5026962;28;20220;-80
2022/11/30 08:01:51;;;;;;;15.93;14.33;;;7.90;99.90;;;;;;5028229;28;20198;-81
2022/11/30 08:04:16;;;;;;;18.70;17.00;;;7.90;99.90;;;;;;5027111;28;20220;-82
2022/11/30 08:06:42;;;;;;;16.87;15.27;;;7.80;99.90;;;;;;5027818;28;20181;-81
2022/11/30 08:09:11;;;;;;;15.77;14.27;;;7.80;99.90;;;;;;5027124;28;20216;-81
2022/11/30 08:11:38;;;;;;;18.47;16.53;;;7.80;99.90;;;;;;5028452;28;20210;-81
2022/11/30 08:14:04;;;;;;;17.67;15.87;;;7.80;99.90;;;;;;5026996;28;20200;-81
2022/11/30 08:16:33;;;;;;;21.00;18.27;;;7.80;99.90;;;;;;5027910;28;20205;-81
2022/11/30 08:18:59;;;;;;;22.60;20.40;;;7.90;99.90;;;;;;5027506;28;20177;-82
2022/11/30 08:21:25;;;;;;;21.50;18.07;;;7.90;99.90;;;;;;5025897;28;20877;-83
2022/11/30 08:23:54;;;;;;;20.07;17.50;;;7.80;99.90;;;;;;5027953;28;20249;-81
2022/11/30 08:26:31;;;;;;;17.90;16.10;;;7.90;99.90;;;;;;5028002;28;20192;-81
2022/11/30 08:28:58;;;;;;;18.83;16.87;;;7.90;99.90;;;;;;5026885;28;20182;-81
2022/11/30 08:31:30;;;;;;;29.87;20.37;;;7.90;99.90;;;;;;5025458;28;20209;-82
2022/11/30 08:33:57;;;;;;;24.57;18.03;;;7.90;99.90;;;;;;5012535;28;20197;-81
2022/11/30 08:36:24;;;;;;;53.37;36.10;;;7.90;99.90;;;;;;5028001;28;20217;-81
2022/11/30 08:38:50;;;;;;;43.73;33.20;;;7.90;99.90;;;;;;5025815;28;20238;-81
2022/11/30 08:41:20;;;;;;;20.53;17.47;;;7.90;99.90;;;;;;5027720;28;20194;-83
2022/11/30 08:43:46;;;;;;;24.37;21.77;;;7.90;99.90;;;;;;5025591;28;20220;-80
2022/11/30 08:46:14;;;;;;;22.10;19.80;;;7.90;99.90;;;;;;5027845;28;20196;-82
2022/11/30 08:48:40;;;;;;;21.83;17.73;;;7.90;99.90;;;;;;5027857;28;20209;-80
2022/11/30 08:51:09;;;;;;;17.17;15.03;;;8.00;99.90;;;;;;5027193;28;20902;-81
2022/11/30 08:53:36;;;;;;;16.60;14.77;;;8.00;99.90;;;;;;5025065;28;20914;-82
2022/11/30 08:56:07;;;;;;;18.00;14.93;;;7.90;99.90;;;;;;5027005;28;20221;-81
2022/11/30 08:58:35;;;;;;;15.77;14.00;;;8.00;99.90;;;;;;5025830;28;20250;-81
2022/11/30 09:01:24;;;;;;;15.57;13.97;;;8.00;99.90;;;;;;5026077;28;20190;-82
2022/11/30 09:03:53;;;;;;;16.47;14.80;;;8.10;99.90;;;;;;5027340;28;20304;-80
2022/11/30 09:06:21;;;;;;;20.00;18.07;;;8.00;99.90;;;;;;5027228;28;20280;-80
2022/11/30 09:08:48;;;;;;;19.00;17.10;;;8.10;99.90;;;;;;5026008;28;20189;-81
2022/11/30 09:11:16;;;;;;;17.17;15.47;;;8.00;99.90;;;;;;5026375;28;20194;-81
2022/11/30 09:13:42;;;;;;;16.90;15.27;;;8.10;99.90;;;;;;5026837;28;20197;-81
2022/11/30 09:16:09;;;;;;;16.07;14.47;;;8.10;99.90;;;;;;5026074;28;20186;-80
2022/11/30 09:18:35;;;;;;;15.97;14.37;;;8.10;99.90;;;;;;5025539;28;20209;-80
2022/11/30 09:21:04;;;;;;;18.07;16.27;;;8.10;99.90;;;;;;5026439;28;20188;-82
2022/11/30 09:23:30;;;;;;;14.77;13.37;;;8.20;99.90;;;;;;5018413;28;20213;-82
2022/11/30 09:26:01;;;;;;;14.23;12.83;;;8.10;99.90;;;;;;5026793;28;20216;-81
2022/11/30 09:28:29;;;;;;;14.47;13.07;;;8.10;99.90;;;;;;5025960;28;20235;-82
2022/11/30 09:31:06;;;;;;;16.47;13.97;;;8.20;99.90;;;;;;5025270;28;20186;-80
2022/11/30 09:33:33;;;;;;;14.80;13.20;;;8.20;99.90;;;;;;5014246;28;20185;-83
2022/11/30 09:36:02;;;;;;;15.20;13.70;;;8.20;99.90;;;;;;5025007;28;20220;-83
2022/11/30 09:38:28;;;;;;;15.50;13.93;;;8.20;99.90;;;;;;5025207;28;20197;-80
2022/11/30 09:40:56;;;;;;;15.13;13.47;;;8.20;99.90;;;;;;5024715;28;20189;-79
2022/11/30 09:43:39;;;;;;;19.50;17.40;;;8.30;99.90;;;;;;5025105;28;20209;-81
2022/11/30 09:46:08;;;;;;;15.97;14.37;;;8.20;99.90;;;;;;5005313;28;20189;-81
2022/11/30 09:48:55;;;;;;;14.47;13.07;;;8.30;99.90;;;;;;5019788;28;20185;-81
2022/11/30 09:51:45;;;;;;;22.03;19.73;;;8.30;99.90;;;;;;5017652;28;20187;-81
2022/11/30 09:54:15;;;;;;;16.93;15.27;;;8.20;99.90;;;;;;5006713;28;20202;-81
2022/11/30 09:56:42;;;;;;;17.10;14.50;;;8.20;99.90;;;;;;5023407;28;20186;-82
2022/11/30 09:59:28;;;;;;;14.87;12.83;;;8.30;99.90;;;;;;5023964;28;20194;-81
2022/11/30 10:01:56;;;;;;;13.87;12.43;;;8.30;99.90;;;;;;5017998;28;20209;-82
2022/11/30 10:04:27;;;;;;;13.07;11.83;;;8.40;99.90;;;;;;5025434;28;20206;-81
2022/11/30 10:07:38;;;;;;;12.87;11.67;;;8.40;99.90;;;;;;5023793;28;20185;-81
2022/11/30 10:10:15;;;;;;;12.10;10.90;;;8.50;99.90;;;;;;4937827;28;20972;-80
2022/11/30 10:13:06;;;;;;;13.60;12.30;;;8.40;99.90;;;;;;5002766;28;20212;-81
2022/11/30 10:15:56;;;;;;;14.00;12.60;;;8.40;99.90;;;;;;5009091;28;20197;-80
2022/11/30 10:18:49;;;;;;;13.10;11.73;;;8.40;99.90;;;;;;5024492;28;20190;-80
2022/11/30 10:21:21;;;;;;;12.73;11.53;;;8.40;99.90;;;;;;5021716;28;20206;-82
2022/11/30 10:24:10;;;;;;;13.30;12.00;;;8.40;99.90;;;;;;5007885;28;20275;-83
2022/11/30 10:26:37;;;;;;;12.20;11.00;;;8.50;99.90;;;;;;5025963;28;20194;-81
2022/11/30 10:29:24;;;;;;;13.77;12.47;;;8.50;99.90;;;;;;5025116;28;20182;-82
2022/11/30 10:31:56;;;;;;;13.73;12.27;;;8.50;99.90;;;;;;5025635;28;20201;-80
2022/11/30 10:34:34;;;;;;;13.23;11.57;;;8.50;99.90;;;;;;5025814;28;20191;-81
2022/11/30 10:37:03;;;;;;;14.03;12.73;;;8.50;99.90;;;;;;5028505;28;20200;-81
2022/11/30 10:39:52;;;;;;;13.10;11.97;;;8.60;99.90;;;;;;5016659;28;20186;-82
2022/11/30 10:42:49;;;;;;;13.30;11.97;;;8.60;99.90;;;;;;5022436;28;20216;-81
2022/11/30 10:45:21;;;;;;;13.93;12.60;;;8.60;99.90;;;;;;4991351;28;20200;-80
2022/11/30 10:48:06;;;;;;;12.57;11.33;;;8.60;99.90;;;;;;5006314;28;20194;-81
2022/11/30 10:50:32;;;;;;;13.47;12.27;;;8.60;99.90;;;;;;5022509;28;20181;-81
2022/11/30 10:52:59;;;;;;;13.80;12.40;;;8.70;99.90;;;;;;5022908;28;20264;-81
2022/11/30 10:55:33;;;;;;;15.87;14.20;;;8.60;99.90;;;;;;5022646;28;20189;-81
2022/11/30 10:58:39;;;;;;;13.00;11.70;;;8.70;99.90;;;;;;5024463;28;20196;-81
2022/11/30 11:01:08;;;;;;;13.50;12.20;;;8.80;99.90;;;;;;4982008;28;20200;-81
2022/11/30 11:03:35;;;;;;;13.53;12.23;;;8.80;99.90;;;;;;5025348;28;20202;-82
2022/11/30 11:06:14;;;;;;;12.97;11.77;;;8.80;99.90;;;;;;5022997;28;20208;-80
2022/11/30 11:08:44;;;;;;;14.57;12.30;;;8.90;99.90;;;;;;5024335;28;20692;-80
2022/11/30 11:11:35;;;;;;;13.90;12.57;;;8.90;99.90;;;;;;5024760;28;20175;-81
2022/11/30 11:14:27;;;;;;;13.90;12.50;;;8.80;99.90;;;;;;5025070;28;20273;-81
2022/11/30 11:17:03;;;;;;;13.50;12.13;;;8.80;99.90;;;;;;5020640;28;20209;-81
2022/11/30 11:19:40;;;;;;;15.37;12.80;;;8.80;99.90;;;;;;5020879;28;20278;-83
2022/11/30 11:22:19;;;;;;;14.47;12.97;;;8.90;99.90;;;;;;5023980;28;20213;-81
2022/11/30 11:24:47;;;;;;;13.77;12.33;;;8.90;99.90;;;;;;5012798;28;20792;-82
2022/11/30 11:27:30;;;;;;;14.77;13.17;;;9.00;99.90;;;;;;5024616;28;20208;-81
2022/11/30 11:29:58;;;;;;;13.67;12.27;;;9.10;99.90;;;;;;5025135;28;20202;-81
2022/11/30 11:32:24;;;;;;;14.13;12.83;;;9.20;99.90;;;;;;5025949;28;20225;-81
2022/11/30 11:34:51;;;;;;;14.33;12.83;;;9.50;99.90;;;;;;5024152;28;20253;-81
2022/11/30 11:37:19;;;;;;;15.33;13.73;;;9.50;99.90;;;;;;5026147;28;20261;-80
2022/11/30 11:40:05;;;;;;;15.37;13.87;;;9.50;99.90;;;;;;5009796;28;20217;-80
2022/11/30 11:42:35;;;;;;;14.93;13.37;;;9.60;99.90;;;;;;5001625;28;20221;-82
2022/11/30 11:45:03;;;;;;;20.10;18.00;;;9.60;99.90;;;;;;5026826;28;20186;-81
2022/11/30 11:47:40;;;;;;;69.50;40.00;;;9.60;99.90;;;;;;5024463;28;20185;-81
2022/11/30 11:50:12;;;;;;;54.47;35.23;;;9.70;99.90;;;;;;5015968;28;20213;-80
2022/11/30 11:52:37;;;;;;;23.77;18.00;;;9.60;99.90;;;;;;5026905;28;20213;-81
2022/11/30 11:55:15;;;;;;;89.70;58.33;;;9.70;99.90;;;;;;5026442;28;20182;-81
2022/11/30 11:57:47;;;;;;;23.83;19.60;;;9.60;99.90;;;;;;5024863;28;20209;-80
2022/11/30 12:00:13;;;;;;;44.17;32.23;;;9.60;99.90;;;;;;5024649;28;20204;-81
2022/11/30 12:02:51;;;;;;;18.63;16.63;;;9.50;99.90;;;;;;5024541;28;20261;-81
2022/11/30 12:05:29;;;;;;;18.87;16.73;;;9.60;99.90;;;;;;5022146;28;20198;-81
2022/11/30 12:08:15;;;;;;;18.57;15.60;;;9.50;99.90;;;;;;5024513;28;20184;-81
2022/11/30 12:11:09;;;;;;;38.87;25.67;;;9.50;99.90;;;;;;5021752;28;20182;-81
2022/11/30 12:13:40;;;;;;;16.07;14.40;;;9.60;99.90;;;;;;5026539;28;20187;-79
2022/11/30 12:16:19;;;;;;;42.53;31.80;;;9.80;99.90;;;;;;5025537;28;20183;-82
2022/11/30 12:18:50;;;;;;;25.17;20.63;;;10.10;99.90;;;;;;5027072;28;20211;-81
2022/11/30 12:21:45;;;;;;;42.07;30.17;;;10.20;99.90;;;;;;5026772;28;20193;-81
2022/11/30 12:24:29;;;;;;;49.53;37.10;;;10.00;99.90;;;;;;5024408;28;20253;-83
2022/11/30 12:27:21;;;;;;;42.63;32.30;;;10.00;99.90;;;;;;5018126;28;20178;-80
2022/11/30 12:29:59;;;;;;;34.20;25.93;;;9.90;99.90;;;;;;5021483;28;20171;-81
2022/11/30 12:32:49;;;;;;;37.03;29.10;;;9.70;99.90;;;;;;5008356;28;20208;-81
2022/11/30 12:35:32;;;;;;;40.67;36.33;;;9.60;99.90;;;;;;5022621;28;20174;-81
2022/11/30 12:38:33;;;;;;;20.43;17.10;;;9.50;99.90;;;;;;5025911;28;20546;-81
2022/11/30 12:41:20;;;;;;;15.10;13.50;;;9.40;99.90;;;;;;5024224;28;20178;-81
2022/11/30 12:43:46;;;;;;;82.93;53.13;;;9.40;99.90;;;;;;5017468;28;20210;-81
2022/11/30 12:46:29;;;;;;;19.87;16.70;;;9.40;99.90;;;;;;5025849;28;20189;-81
2022/11/30 12:49:13;;;;;;;14.50;13.00;;;9.30;99.90;;;;;;5011751;28;20257;-81
2022/11/30 12:51:49;;;;;;;29.33;22.20;;;9.40;99.90;;;;;;5024835;28;20221;-81
2022/11/30 12:54:39;;;;;;;27.63;20.97;;;9.40;99.90;;;;;;5028499;28;20187;-81